Time;durP1;ratioP1;P1;durP2;ratioP2;P2;SDS_P1;SDS_P2;PMS_P1;PMS_P2;Temp;Humidity;BMP_temperature;BMP_pressure;BME280_temperature;BME280_humidity;BME280_pressure;Samples;Min_cycle;Max_cycle;Signal;HPM_P1;HPM_P2
2023/08/04 00:00:14;;;;;;;10.40;9.30;;;;;;;25.53;46.49;93547.75;5039452;28;20036;-74
2023/08/04 00:02:40;;;;;;;11.48;10.07;;;;;;;25.54;46.62;93544.63;5043961;28;20036;-75
2023/08/04 00:05:07;;;;;;;10.27;9.27;;;;;;;25.49;46.90;93536.94;5046936;28;20037;-76
2023/08/04 00:07:33;;;;;;;12.95;9.60;;;;;;;25.48;46.80;93540.81;5043240;28;20049;-76
2023/08/04 00:09:58;;;;;;;10.95;9.45;;;;;;;25.42;46.50;93531.59;5047099;28;20033;-75
2023/08/04 00:12:24;;;;;;;11.95;10.02;;;;;;;25.42;46.85;93537.03;5041331;28;20056;-76
2023/08/04 00:14:49;;;;;;;10.52;9.52;;;;;;;25.45;46.60;93546.34;5050425;28;20083;-73
2023/08/04 00:17:15;;;;;;;11.18;10.07;;;;;;;25.37;47.01;93539.47;5045530;28;20037;-74
2023/08/04 00:19:42;;;;;;;10.50;9.50;;;;;;;25.32;47.00;93540.72;5047552;28;20552;-75
2023/08/04 00:22:08;;;;;;;10.98;9.85;;;;;;;25.42;46.75;93547.19;5046319;28;20029;-73
2023/08/04 00:24:34;;;;;;;10.45;9.45;;;;;;;25.34;46.79;93545.75;5044051;28;20033;-73
2023/08/04 00:27:01;;;;;;;12.00;10.35;;;;;;;25.26;47.20;93547.78;5044470;28;20033;-73
2023/08/04 00:29:26;;;;;;;11.73;9.93;;;;;;;25.30;46.71;93551.22;5042622;28;20367;-75
2023/08/04 00:31:52;;;;;;;12.73;10.80;;;;;;;25.32;47.14;93548.13;5045276;28;20029;-74
2023/08/04 00:34:17;;;;;;;11.18;9.88;;;;;;;25.12;46.78;93523.50;5045111;28;20067;-74
2023/08/04 00:36:44;;;;;;;11.48;10.35;;;;;;;25.19;47.22;93548.66;5042377;28;20119;-74
2023/08/04 00:39:10;;;;;;;14.10;10.98;;;;;;;24.91;47.27;93502.84;5045163;28;20087;-74
2023/08/04 00:41:35;;;;;;;10.50;9.30;;;;;;;24.99;47.48;93522.53;5045686;28;20790;-73
2023/08/04 00:44:01;;;;;;;10.45;9.45;;;;;;;24.98;47.51;93534.63;5046045;28;20624;-75
2023/08/04 00:46:27;;;;;;;14.07;10.57;;;;;;;24.92;47.99;93538.97;5049351;28;20066;-74
2023/08/04 00:48:53;;;;;;;11.38;10.27;;;;;;;24.92;48.45;93549.84;5044743;28;20571;-75
2023/08/04 00:51:18;;;;;;;12.90;10.38;;;;;;;24.87;48.54;93553.03;5068288;28;20406;-74
2023/08/04 00:53:44;;;;;;;10.98;9.98;;;;;;;24.89;48.30;93553.38;5055767;28;20082;-74
2023/08/04 00:56:09;;;;;;;12.10;10.48;;;;;;;24.84;48.77;93557.31;5048686;28;20032;-75
2023/08/04 00:58:35;;;;;;;15.95;10.73;;;;;;;24.83;48.50;93556.53;5047050;28;20040;-74
2023/08/04 01:01:00;;;;;;;12.93;11.23;;;;;;;24.80;48.47;93543.00;5045865;28;20024;-73
2023/08/04 01:03:27;;;;;;;12.00;9.55;;;;;;;24.79;48.64;93544.94;5043967;28;20042;-74
2023/08/04 01:06:15;;;;;;;12.23;11.00;;;;;;;24.87;49.04;93550.31;5048586;28;20103;-73
2023/08/04 01:09:07;;;;;;;11.55;10.10;;;;;;;24.75;48.66;93536.06;5044997;28;20041;-73
2023/08/04 01:11:39;;;;;;;11.70;10.60;;;;;;;24.81;48.73;93548.03;5047558;28;20228;-74
2023/08/04 01:14:05;;;;;;;11.57;10.50;;;;;;;24.71;49.10;93548.97;5051915;28;20409;-74
2023/08/04 01:16:31;;;;;;;12.30;11.00;;;;;;;24.77;49.21;93547.31;5043095;28;20620;-75
2023/08/04 01:18:59;;;;;;;14.38;10.13;;;;;;;24.74;49.04;93558.22;5043250;28;20513;-75
2023/08/04 01:21:25;;;;;;;11.32;9.82;;;;;;;24.67;49.41;93548.22;5042704;28;20131;-74
2023/08/04 01:23:50;;;;;;;11.43;10.02;;;;;;;24.56;49.31;93546.78;5037472;28;20033;-75
2023/08/04 01:26:16;;;;;;;11.60;9.95;;;;;;;24.63;49.44;93552.94;5047364;28;20414;-75
2023/08/04 01:28:42;;;;;;;11.93;10.48;;;;;;;24.57;49.41;93542.91;5039329;28;20041;-75
2023/08/04 01:31:08;;;;;;;11.60;10.40;;;;;;;24.63;49.46;93542.06;5046656;28;20170;-75
2023/08/04 01:33:35;;;;;;;11.23;10.07;;;;;;;24.61;49.29;93552.56;5065829;28;20063;-73
2023/08/04 01:36:00;;;;;;;11.32;10.13;;;;;;;24.56;49.72;93544.84;5057240;28;20055;-75
2023/08/04 01:38:26;;;;;;;11.70;10.05;;;;;;;24.60;49.49;93553.72;5046096;28;20873;-74
2023/08/04 01:40:51;;;;;;;11.20;10.05;;;;;;;24.64;49.42;93554.44;5032021;28;20045;-74
2023/08/04 01:43:20;;;;;;;11.45;10.35;;;;;;;24.56;49.51;93561.16;5044342;28;20539;-73
2023/08/04 01:45:45;;;;;;;10.95;9.95;;;;;;;24.53;49.55;93559.28;5046561;28;21351;-75
2023/08/04 01:48:11;;;;;;;10.00;9.10;;;;;;;24.45;49.22;93546.94;5044703;28;20174;-74
2023/08/04 01:50:36;;;;;;;12.43;10.02;;;;;;;24.50;49.55;93551.91;5048011;28;20060;-74
2023/08/04 01:53:04;;;;;;;11.90;10.80;;;;;;;24.33;49.78;93536.59;5054691;28;20421;-76
2023/08/04 01:55:30;;;;;;;11.10;10.07;;;;;;;24.38;49.72;93555.19;5066679;28;20086;-74
2023/08/04 01:57:55;;;;;;;10.52;9.50;;;;;;;24.24;49.90;93531.66;5045502;28;20025;-75
2023/08/04 02:00:20;;;;;;;11.05;9.95;;;;;;;24.38;49.96;93555.19;5045913;28;20458;-74
2023/08/04 02:02:46;;;;;;;10.55;9.55;;;;;;;24.37;50.04;93564.50;5059564;28;20067;-74
2023/08/04 02:05:11;;;;;;;11.32;10.07;;;;;;;24.36;49.73;93562.97;5056478;28;20025;-73
2023/08/04 02:07:37;;;;;;;14.95;10.02;;;;;;;24.26;50.11;93561.91;5046126;28;20037;-75
2023/08/04 02:10:03;;;;;;;10.57;9.57;;;;;;;24.24;50.22;93564.28;5046039;28;20021;-74
2023/08/04 02:12:28;;;;;;;12.90;10.50;;;;;;;24.24;50.44;93575.16;5073646;28;20518;-75
2023/08/04 02:14:54;;;;;;;12.07;10.55;;;;;;;24.19;50.44;93580.25;5059951;28;20048;-74
2023/08/04 02:17:19;;;;;;;10.48;9.45;;;;;;;24.09;50.69;93572.94;5048211;28;20066;-75
2023/08/04 02:19:45;;;;;;;12.38;10.45;;;;;;;24.13;50.30;93576.44;5046495;28;20478;-73
2023/08/04 02:22:10;;;;;;;12.43;10.90;;;;;;;24.06;50.77;93569.09;5052603;28;20023;-76
2023/08/04 02:24:36;;;;;;;11.23;10.13;;;;;;;24.13;50.70;93585.34;5045798;28;20043;-74
2023/08/04 02:27:01;;;;;;;11.35;10.20;;;;;;;24.11;50.08;93581.44;5048748;28;20118;-75
2023/08/04 02:29:26;;;;;;;10.68;9.65;;;;;;;24.06;49.98;93573.75;5059768;28;20036;-74
2023/08/04 02:31:52;;;;;;;10.93;9.90;;;;;;;24.08;50.12;93582.28;5046824;28;20450;-75
2023/08/04 02:34:17;;;;;;;11.18;10.07;;;;;;;23.87;50.12;93553.38;5048792;28;20033;-73
2023/08/04 02:36:43;;;;;;;11.63;9.65;;;;;;;24.09;50.43;93595.47;5046394;28;20055;-75
2023/08/04 02:39:08;;;;;;;12.55;11.02;;;;;;;24.15;50.54;93593.84;5052083;28;20041;-74
2023/08/04 02:41:33;;;;;;;13.27;10.40;;;;;;;24.01;50.56;93580.38;5047707;28;20044;-74
2023/08/04 02:44:00;;;;;;;11.52;10.13;;;;;;;23.94;50.71;93589.41;5047180;28;20602;-74
2023/08/04 02:46:25;;;;;;;13.13;10.13;;;;;;;23.92;50.81;93580.09;5047858;28;20025;-74
2023/08/04 02:48:52;;;;;;;14.02;10.00;;;;;;;23.96;50.94;93581.59;5047083;28;20471;-75
2023/08/04 02:51:17;;;;;;;13.18;10.32;;;;;;;23.87;50.67;93580.53;5053484;28;20086;-76
2023/08/04 02:53:45;;;;;;;10.90;9.80;;;;;;;23.83;51.00;93588.72;5045802;28;20079;-76
2023/08/04 02:56:18;;;;;;;11.10;9.38;;;;;;;23.69;51.44;93569.06;5061548;28;20040;-74
2023/08/04 02:58:45;;;;;;;10.55;9.43;;;;;;;23.76;51.53;93593.47;5064889;28;20089;-74
2023/08/04 03:01:11;;;;;;;10.48;9.48;;;;;;;23.70;51.67;93589.63;5045693;28;20024;-75
2023/08/04 03:03:37;;;;;;;13.43;11.25;;;;;;;23.70;51.46;93595.84;5064270;28;20111;-74
2023/08/04 03:06:03;;;;;;;11.15;10.15;;;;;;;23.71;51.62;93594.63;5044542;28;20267;-75
2023/08/04 03:08:31;;;;;;;11.50;10.40;;;;;;;23.68;51.67;93587.31;5047063;28;20673;-74
2023/08/04 03:10:57;;;;;;;10.98;9.90;;;;;;;23.72;51.75;93596.19;5046805;28;20736;-74
2023/08/04 03:13:22;;;;;;;12.95;10.32;;;;;;;23.70;51.74;93593.13;5045472;28;20074;-76
2023/08/04 03:15:54;;;;;;;11.07;10.02;;;;;;;23.71;51.31;93591.19;5046416;28;20029;-74
2023/08/04 03:18:20;;;;;;;12.45;10.90;;;;;;;23.67;51.58;93588.47;5047239;28;20344;-73
2023/08/04 03:20:45;;;;;;;12.48;11.27;;;;;;;23.66;51.76;93584.22;5045828;28;20035;-75
2023/08/04 03:23:10;;;;;;;11.52;10.32;;;;;;;23.66;51.76;93584.22;5047329;28;20037;-74
2023/08/04 03:25:36;;;;;;;12.35;10.98;;;;;;;23.58;51.89;93574.59;5044886;28;20540;-74
2023/08/04 03:28:01;;;;;;;12.40;11.15;;;;;;;23.61;52.04;93579.25;5049161;28;20736;-75
2023/08/04 03:30:27;;;;;;;11.82;10.43;;;;;;;23.41;51.78;93567.34;5047710;28;20048;-74
2023/08/04 03:32:53;;;;;;;14.00;10.82;;;;;;;23.44;51.93;93566.53;5052674;28;20071;-73
2023/08/04 03:35:18;;;;;;;12.30;11.07;;;;;;;23.56;52.33;93587.81;5044021;28;20061;-74
2023/08/04 03:37:44;;;;;;;13.82;12.43;;;;;;;23.59;52.09;93587.00;5051121;28;20032;-75
2023/08/04 03:40:10;;;;;;;14.80;10.52;;;;;;;23.28;52.42;93547.28;5046877;28;20036;-75
2023/08/04 03:42:38;;;;;;;12.32;10.63;;;;;;;23.50;52.28;93578.56;5045460;28;20029;-73
2023/08/04 03:45:06;;;;;;;12.88;11.68;;;;;;;23.50;52.43;93589.41;5061068;28;20036;-75
2023/08/04 03:47:31;;;;;;;11.82;10.23;;;;;;;23.55;52.30;93595.19;5051969;28;20037;-75
2023/08/04 03:49:56;;;;;;;11.45;10.35;;;;;;;23.55;52.77;93594.41;5047971;28;20086;-74
2023/08/04 03:52:22;;;;;;;12.35;10.45;;;;;;;23.60;52.32;93593.19;5045547;28;20021;-75
2023/08/04 03:54:48;;;;;;;14.82;11.32;;;;;;;23.61;52.99;93595.53;5047747;28;20493;-74
2023/08/04 03:57:13;;;;;;;12.55;11.25;;;;;;;23.52;52.79;93585.09;5044821;28;20029;-75
2023/08/04 03:59:38;;;;;;;12.35;11.07;;;;;;;23.56;53.19;93585.84;5046659;28;20256;-73
2023/08/04 04:02:04;;;;;;;12.32;10.45;;;;;;;23.59;53.31;93587.00;5047854;28;20055;-75
2023/08/04 04:04:30;;;;;;;12.82;10.48;;;;;;;23.59;53.37;93595.16;5045130;28;20090;-74
2023/08/04 04:06:56;;;;;;;12.95;10.98;;;;;;;23.49;53.75;93580.50;5046509;28;20116;-75
2023/08/04 04:09:21;;;;;;;13.05;11.75;;;;;;;23.64;54.18;93596.66;5044124;28;20085;-74
2023/08/04 04:11:46;;;;;;;13.18;11.80;;;;;;;23.58;54.88;93593.59;5045892;28;20395;-75
2023/08/04 04:14:12;;;;;;;14.18;12.07;;;;;;;23.61;55.07;93605.59;5044423;28;20032;-75
2023/08/04 04:16:37;;;;;;;13.98;11.50;;;;;;;23.55;55.16;93595.19;5046121;28;20040;-74
2023/08/04 04:19:03;;;;;;;15.90;10.85;;;;;;;23.68;54.69;93606.31;5048007;28;20786;-75
2023/08/04 04:21:28;;;;;;;17.05;12.60;;;;;;;23.68;54.70;93587.31;5048555;28;20395;-74
2023/08/04 04:23:54;;;;;;;14.50;13.02;;;;;;;23.77;54.25;93598.47;5049692;28;20043;-74
2023/08/04 04:26:19;;;;;;;16.50;13.45;;;;;;;23.85;54.05;93604.63;5047666;28;20114;-73
2023/08/04 04:28:44;;;;;;;14.25;12.52;;;;;;;23.82;53.66;93591.84;5048754;28;20036;-75
2023/08/04 04:31:10;;;;;;;14.90;13.35;;;;;;;23.96;53.47;93600.63;5049092;28;20124;-74
2023/08/04 04:33:35;;;;;;;16.23;14.20;;;;;;;24.01;53.70;93594.75;5049673;28;20028;-75
2023/08/04 04:36:00;;;;;;;16.08;14.02;;;;;;;24.06;52.58;93588.09;5049838;28;20032;-74
2023/08/04 04:38:29;;;;;;;17.13;15.10;;;;;;;24.06;52.54;93590.81;5052187;28;20075;-75
2023/08/04 04:41:00;;;;;;;15.88;14.30;;;;;;;24.28;52.11;93602.28;5055517;28;20029;-75
2023/08/04 04:43:26;;;;;;;62.97;18.45;;;;;;;24.13;52.31;93579.16;5048954;28;20028;-74
2023/08/04 04:45:52;;;;;;;35.33;16.40;;;;;;;24.34;52.51;93608.81;5050528;28;20098;-75
2023/08/04 04:48:18;;;;;;;41.47;15.52;;;;;;;24.29;52.92;93592.94;5050927;28;20492;-74
2023/08/04 04:50:44;;;;;;;28.00;14.68;;;;;;;24.39;52.97;93616.53;5049631;28;20817;-74
2023/08/04 04:53:09;;;;;;;15.93;14.32;;;;;;;24.46;52.44;93608.28;5049701;28;20053;-75
2023/08/04 04:55:35;;;;;;;18.50;16.27;;;;;;;24.60;51.90;93612.75;5049877;28;20044;-75
2023/08/04 04:58:01;;;;;;;18.50;14.10;;;;;;;24.60;51.83;93613.53;5050333;28;20747;-76
2023/08/04 05:00:27;;;;;;;16.88;14.90;;;;;;;24.55;51.75;93611.28;5049609;28;20990;-75
2023/08/04 05:02:53;;;;;;;23.95;15.75;;;;;;;24.56;51.96;93615.53;5047829;28;20560;-75
2023/08/04 05:05:18;;;;;;;26.80;15.23;;;;;;;24.63;51.77;93620.91;5052014;28;20137;-74
2023/08/04 05:07:43;;;;;;;21.63;15.95;;;;;;;24.63;51.41;93607.31;5047750;28;20047;-75
2023/08/04 05:10:09;;;;;;;16.98;14.85;;;;;;;24.82;50.24;93614.09;5050573;28;20028;-73
2023/08/04 05:12:35;;;;;;;23.50;16.60;;;;;;;24.82;50.47;93625.75;5047821;28;20788;-75
2023/08/04 05:15:01;;;;;;;20.65;15.07;;;;;;;24.85;50.56;93618.69;5048408;28;20112;-74
2023/08/04 05:17:26;;;;;;;20.88;15.70;;;;;;;24.92;51.17;93628.72;5046133;28;20383;-74
2023/08/04 05:19:52;;;;;;;24.58;15.82;;;;;;;25.02;50.41;93623.16;5049592;28;20119;-75
2023/08/04 05:22:17;;;;;;;20.27;15.98;;;;;;;25.05;50.15;93622.31;5048356;28;20028;-74
2023/08/04 05:24:43;;;;;;;19.48;15.07;;;;;;;25.20;49.97;93623.66;5048503;28;20505;-75
2023/08/04 05:27:08;;;;;;;19.00;14.90;;;;;;;25.20;50.61;93617.47;5047162;28;20069;-74
2023/08/04 05:29:34;;;;;;;19.85;15.32;;;;;;;25.24;50.72;93621.66;5046837;28;20037;-74
2023/08/04 05:31:59;;;;;;;16.10;14.43;;;;;;;25.20;49.76;93593.75;5047055;28;20292;-74
2023/08/04 05:34:25;;;;;;;18.25;16.27;;;;;;;25.29;50.42;93601.38;5048332;28;20025;-74
2023/08/04 05:36:50;;;;;;;16.52;14.50;;;;;;;25.35;49.85;93621.53;5047848;28;20029;-75
2023/08/04 05:39:16;;;;;;;23.23;16.27;;;;;;;25.38;48.99;93614.50;5047022;28;20041;-75
2023/08/04 05:41:44;;;;;;;16.92;14.30;;;;;;;25.43;48.52;93617.53;5047501;28;20128;-75
2023/08/04 05:44:09;;;;;;;17.35;15.65;;;;;;;25.48;48.66;93622.50;5048099;28;20127;-75
2023/08/04 05:46:35;;;;;;;16.80;14.40;;;;;;;25.36;48.99;93595.88;5047198;28;20732;-74
2023/08/04 05:49:00;;;;;;;28.52;15.48;;;;;;;25.51;49.12;93615.47;5047235;28;20028;-74
2023/08/04 05:51:25;;;;;;;17.40;14.27;;;;;;;25.64;48.62;93630.03;5047355;28;20028;-75
2023/08/04 05:53:51;;;;;;;16.67;14.05;;;;;;;25.58;48.32;93616.13;5047713;28;20562;-75
2023/08/04 05:56:16;;;;;;;16.52;14.80;;;;;;;25.74;48.34;93628.34;5047557;28;20074;-74
2023/08/04 05:58:41;;;;;;;19.45;14.43;;;;;;;25.76;48.43;93620.53;5047632;28;20040;-75
2023/08/04 06:01:07;;;;;;;18.08;15.00;;;;;;;25.64;47.80;93616.44;5046515;28;20028;-75
2023/08/04 06:03:32;;;;;;;20.65;14.65;;;;;;;25.53;47.61;93619.31;5047189;28;20086;-76
2023/08/04 06:05:58;;;;;;;16.45;14.05;;;;;;;25.67;46.62;93623.75;5046210;28;20040;-74
2023/08/04 06:08:24;;;;;;;17.52;14.10;;;;;;;25.55;47.84;93621.63;5047152;28;20595;-76
2023/08/04 06:10:49;;;;;;;19.80;14.77;;;;;;;25.57;48.11;93614.59;5046058;28;20491;-75
2023/08/04 06:13:15;;;;;;;19.35;14.85;;;;;;;25.69;48.28;93611.28;5006620;28;1162335;-74
2023/08/04 06:15:40;;;;;;;21.58;15.07;;;;;;;25.65;47.06;93616.03;5048130;28;20052;-74
2023/08/04 06:18:06;;;;;;;16.65;14.85;;;;;;;25.77;47.73;93611.16;5046413;28;20509;-74
2023/08/04 06:20:32;;;;;;;16.45;14.85;;;;;;;25.86;48.49;93611.41;5047617;28;20368;-75
2023/08/04 06:22:58;;;;;;;18.00;14.10;;;;;;;26.04;46.61;93617.34;5046412;28;20554;-74
2023/08/04 06:25:23;;;;;;;15.93;13.88;;;;;;;25.97;46.76;93609.28;5046543;28;20029;-75
2023/08/04 06:27:50;;;;;;;15.80;14.15;;;;;;;26.06;46.71;93623.13;5047615;28;20017;-74
2023/08/04 06:30:15;;;;;;;16.60;14.80;;;;;;;26.02;46.75;93627.88;5044784;28;20062;-76
2023/08/04 06:32:42;;;;;;;15.13;13.55;;;;;;;26.04;47.69;93625.53;5049540;28;20465;-74
2023/08/04 06:35:08;;;;;;;18.90;13.32;;;;;;;26.11;47.31;93620.72;5056348;28;20028;-75
2023/08/04 06:37:34;;;;;;;17.10;13.27;;;;;;;26.01;48.14;93620.88;5073249;28;20045;-75
2023/08/04 06:39:59;;;;;;;20.20;13.32;;;;;;;26.10;47.82;93621.16;5046690;28;20678;-74
2023/08/04 06:42:25;;;;;;;18.83;14.70;;;;;;;26.10;47.51;93612.97;5046629;28;20536;-75
2023/08/04 06:44:51;;;;;;;15.70;14.07;;;;;;;26.23;46.93;93619.34;5046034;28;20044;-76
2023/08/04 06:47:16;;;;;;;16.50;14.57;;;;;;;26.14;47.63;93616.41;5047754;28;20043;-76
2023/08/04 06:49:42;;;;;;;16.88;13.45;;;;;;;26.34;47.83;93622.66;5046129;28;20036;-75
2023/08/04 06:52:08;;;;;;;17.30;13.30;;;;;;;26.49;45.87;93615.78;5046962;28;20394;-75
2023/08/04 06:54:34;;;;;;;16.95;13.25;;;;;;;26.39;46.61;93611.25;5046620;28;20045;-75
2023/08/04 06:57:00;;;;;;;19.08;14.13;;;;;;;26.50;46.28;93609.09;5051923;28;20032;-75
2023/08/04 06:59:26;;;;;;;16.40;13.02;;;;;;;26.58;47.42;93614.44;5046032;28;20380;-75
2023/08/04 07:01:51;;;;;;;16.10;13.45;;;;;;;26.65;47.22;93619.72;5046790;28;20040;-75
2023/08/04 07:04:17;;;;;;;20.67;11.88;;;;;;;26.60;45.99;93604.63;5045716;28;20024;-74
2023/08/04 07:06:42;;;;;;;18.77;12.05;;;;;;;26.51;46.25;93601.69;5048625;28;20098;-76
2023/08/04 07:09:08;;;;;;;16.83;12.70;;;;;;;26.79;46.11;93612.03;5045924;28;20511;-75
2023/08/04 07:11:33;;;;;;;12.52;9.82;;;;;;;26.86;45.10;93608.41;5046628;28;20083;-74
2023/08/04 07:13:59;;;;;;;16.30;10.82;;;;;;;26.93;44.93;93608.25;5046984;28;20043;-75
2023/08/04 07:16:24;;;;;;;17.75;10.10;;;;;;;27.02;45.35;93600.31;5045106;28;20029;-75
2023/08/04 07:18:50;;;;;;;17.15;9.25;;;;;;;27.12;44.43;93593.06;5046016;28;20031;-75
2023/08/04 07:21:15;;;;;;;14.35;12.57;;;;;;;27.07;44.46;93594.34;5046340;28;20056;-74
2023/08/04 07:23:42;;;;;;;18.08;13.88;;;;;;;26.99;45.57;93601.88;5047200;28;20052;-76
2023/08/04 07:26:08;;;;;;;19.17;12.98;;;;;;;27.20;44.93;93611.59;5045865;28;20087;-74
2023/08/04 07:28:35;;;;;;;15.48;12.00;;;;;;;27.34;43.97;93610.50;5045589;28;20068;-76
2023/08/04 07:31:05;;;;;;;14.13;12.52;;;;;;;27.50;44.72;93602.31;5046535;28;20060;-76
2023/08/04 07:33:31;;;;;;;16.83;12.80;;;;;;;27.51;44.02;93614.03;5047578;28;20041;-74
2023/08/04 07:35:57;;;;;;;14.13;12.57;;;;;;;27.50;44.21;93613.25;5044902;28;20036;-75
2023/08/04 07:38:25;;;;;;;18.88;12.27;;;;;;;27.63;44.47;93599.69;5045605;28;20087;-77
2023/08/04 07:40:51;;;;;;;14.38;12.02;;;;;;;27.71;44.01;93604.59;5051963;28;20415;-75
2023/08/04 07:43:17;;;;;;;16.00;11.82;;;;;;;27.77;43.71;93604.81;5047182;28;20031;-75
2023/08/04 07:45:43;;;;;;;15.13;12.00;;;;;;;27.75;43.34;93601.75;5047232;28;20182;-76
2023/08/04 07:48:09;;;;;;;12.80;11.25;;;;;;;27.76;42.55;93603.31;5047505;28;20065;-74
2023/08/04 07:50:43;;;;;;;13.15;11.23;;;;;;;27.78;42.36;93604.41;5046670;28;20039;-75
2023/08/04 07:53:09;;;;;;;12.63;10.82;;;;;;;27.68;43.09;93601.94;5047534;28;20041;-77
2023/08/04 07:55:36;;;;;;;12.48;10.60;;;;;;;27.87;44.08;93603.78;5045220;28;20041;-75
2023/08/04 07:58:06;;;;;;;14.15;10.90;;;;;;;27.66;42.56;93607.06;5045155;28;20177;-74
2023/08/04 08:00:31;;;;;;;12.27;11.00;;;;;;;27.60;42.86;93606.03;5046625;28;20120;-74
2023/08/04 08:02:57;;;;;;;11.80;10.60;;;;;;;27.75;42.74;93602.53;5045340;28;20509;-74
2023/08/04 08:05:22;;;;;;;13.38;11.40;;;;;;;27.90;42.71;93600.22;5052042;28;21155;-75
2023/08/04 08:07:48;;;;;;;11.80;10.23;;;;;;;28.07;42.49;93598.22;5043377;28;20037;-74
2023/08/04 08:10:14;;;;;;;15.48;10.13;;;;;;;28.22;40.59;93591.97;5046481;28;20054;-75
2023/08/04 08:12:39;;;;;;;14.00;10.30;;;;;;;28.15;41.30;93600.38;5044800;28;20074;-76
2023/08/04 08:15:05;;;;;;;13.25;11.32;;;;;;;28.02;41.13;93593.28;5045939;28;20451;-75
2023/08/04 08:17:31;;;;;;;12.30;10.05;;;;;;;28.27;41.54;93598.13;5044868;28;20639;-75
2023/08/04 08:19:57;;;;;;;11.93;10.65;;;;;;;28.24;42.02;93595.06;5045856;28;20932;-75
2023/08/04 08:22:23;;;;;;;11.88;10.02;;;;;;;28.27;41.13;93592.66;5045754;28;20154;-76
2023/08/04 08:24:53;;;;;;;12.95;9.95;;;;;;;28.30;40.89;93598.06;5046743;28;20120;-75
2023/08/04 08:27:19;;;;;;;11.88;10.68;;;;;;;28.40;40.41;93586.03;5045036;28;20495;-75
2023/08/04 08:29:44;;;;;;;12.27;10.25;;;;;;;28.46;40.88;93591.75;5045112;28;20051;-74
2023/08/04 08:32:10;;;;;;;15.77;9.43;;;;;;;28.42;40.09;93591.06;5046268;28;20437;-73
2023/08/04 08:34:35;;;;;;;11.75;9.65;;;;;;;28.42;40.26;93588.34;5041793;28;20384;-73
2023/08/04 08:37:02;;;;;;;11.40;10.25;;;;;;;28.28;39.91;93594.19;5062593;28;20029;-77
2023/08/04 08:39:29;;;;;;;13.95;9.95;;;;;;;28.36;40.69;93590.84;5044652;28;20032;-76
2023/08/04 08:41:57;;;;;;;15.90;9.88;;;;;;;28.42;40.85;93593.81;5046221;28;20037;-74
2023/08/04 08:44:22;;;;;;;12.50;9.25;;;;;;;28.50;40.20;93597.91;5046104;28;20540;-76
2023/08/04 08:46:48;;;;;;;10.80;9.70;;;;;;;28.51;40.15;93591.22;5047100;28;20036;-75
2023/08/04 08:49:15;;;;;;;13.48;10.38;;;;;;;28.44;40.25;93581.25;5049883;28;20032;-75
2023/08/04 08:51:48;;;;;;;10.90;9.90;;;;;;;28.46;39.91;93589.00;5046333;28;20017;-75
2023/08/04 08:54:16;;;;;;;11.55;10.32;;;;;;;28.63;40.18;93587.75;5046358;28;20378;-76
2023/08/04 08:56:42;;;;;;;12.93;10.85;;;;;;;28.66;40.39;93575.97;5060852;28;20456;-76
2023/08/04 08:59:08;;;;;;;11.80;10.02;;;;;;;28.93;38.39;93572.84;5045596;28;20540;-75
2023/08/04 09:01:34;;;;;;;13.07;9.88;;;;;;;28.76;39.93;93563.94;5042392;28;20467;-74
2023/08/04 09:04:00;;;;;;;11.05;9.95;;;;;;;28.78;39.28;93569.78;5046006;28;20074;-76
2023/08/04 09:06:26;;;;;;;11.75;9.68;;;;;;;28.84;38.94;93570.00;5048943;28;20021;-77
2023/08/04 09:08:54;;;;;;;10.93;9.93;;;;;;;28.67;39.75;93572.03;5049084;28;20032;-76
2023/08/04 09:11:20;;;;;;;14.73;9.52;;;;;;;28.82;39.47;93570.44;5048190;28;20033;-75
2023/08/04 09:13:46;;;;;;;10.80;9.70;;;;;;;28.75;39.17;93567.88;5049219;28;20552;-75
2023/08/04 09:16:12;;;;;;;10.23;9.23;;;;;;;28.98;38.92;93562.13;5048076;28;20545;-75
2023/08/04 09:18:39;;;;;;;11.77;9.45;;;;;;;28.99;39.81;93565.63;5048925;28;20506;-74
2023/08/04 09:21:07;;;;;;;11.07;10.07;;;;;;;28.85;39.51;93566.81;5048125;28;20060;-74
2023/08/04 09:23:49;;;;;;;12.82;10.45;;;;;;;28.93;39.36;93559.19;5056491;28;20044;-75
2023/08/04 09:26:15;;;;;;;11.93;10.73;;;;;;;28.85;39.41;93558.59;5050450;28;20577;-76
2023/08/04 09:28:41;;;;;;;11.85;10.10;;;;;;;28.79;39.24;93548.66;5050135;28;20581;-75
2023/08/04 09:31:12;;;;;;;11.30;10.30;;;;;;;28.76;39.66;93554.97;5048451;28;20128;-72
2023/08/04 09:33:43;;;;;;;15.60;10.25;;;;;;;28.82;39.84;93548.53;5055710;28;20116;-75
2023/08/04 09:36:08;;;;;;;12.85;10.15;;;;;;;29.13;41.00;93548.03;5050910;28;20064;-74
2023/08/04 09:38:35;;;;;;;12.35;10.13;;;;;;;29.21;39.62;93538.41;5048665;28;20131;-74
2023/08/04 09:41:06;;;;;;;12.68;10.10;;;;;;;29.37;39.14;93549.25;5048700;28;20029;-75
2023/08/04 09:43:31;;;;;;;10.65;9.65;;;;;;;29.36;39.54;93528.53;5053806;28;20041;-75
2023/08/04 09:45:59;;;;;;;12.02;10.93;;;;;;;29.44;38.92;93543.53;5048862;28;20043;-75
2023/08/04 09:48:26;;;;;;;11.13;10.07;;;;;;;29.42;38.74;93529.53;5048598;28;20036;-76
2023/08/04 09:51:07;;;;;;;11.27;10.13;;;;;;;29.60;38.38;93529.69;5046955;28;20064;-76
2023/08/04 09:53:49;;;;;;;11.63;9.40;;;;;;;29.53;38.31;93538.91;5048105;28;20055;-75
2023/08/04 09:56:18;;;;;;;12.75;9.70;;;;;;;29.56;37.75;93526.31;5047043;28;20154;-76
2023/08/04 09:58:44;;;;;;;10.18;9.18;;;;;;;29.62;38.05;93532.00;5048382;28;20037;-76
2023/08/04 10:01:11;;;;;;;11.55;10.38;;;;;;;29.48;38.17;93525.75;5048509;28;20058;-75
2023/08/04 10:03:39;;;;;;;11.15;9.65;;;;;;;29.52;37.91;93528.41;5067132;28;20412;-76
2023/08/04 10:06:06;;;;;;;10.85;9.73;;;;;;;29.65;38.83;93531.88;5051382;28;20045;-75
2023/08/04 10:08:36;;;;;;;11.77;9.75;;;;;;;29.74;37.77;93526.50;5046490;28;20079;-74
2023/08/04 10:11:03;;;;;;;10.52;9.52;;;;;;;29.97;37.53;93521.84;5048477;28;20030;-75
2023/08/04 10:13:33;;;;;;;11.00;10.00;;;;;;;30.10;39.32;93522.56;5048437;28;20087;-76
2023/08/04 10:16:03;;;;;;;11.18;9.90;;;;;;;30.12;37.23;93514.66;5045922;28;20020;-75
2023/08/04 10:18:57;;;;;;;10.55;9.23;;;;;;;30.13;37.14;93521.66;5047510;28;20185;-74
2023/08/04 10:21:28;;;;;;;10.23;8.68;;;;;;;30.14;36.66;93532.19;5058746;28;21291;-75
2023/08/04 10:23:58;;;;;;;11.45;8.98;;;;;;;29.90;36.66;93509.91;5055207;28;20040;-75
2023/08/04 10:26:24;;;;;;;11.30;9.70;;;;;;;30.05;37.08;93518.41;5046357;28;20044;-75
2023/08/04 10:29:08;;;;;;;11.18;9.52;;;;;;;30.32;37.47;93528.84;5048514;28;20051;-75
2023/08/04 10:31:51;;;;;;;10.73;9.73;;;;;;;30.29;36.37;93522.28;5047586;28;20103;-73
2023/08/04 10:34:37;;;;;;;11.65;10.45;;;;;;;30.28;35.93;93525.47;5045836;28;20016;-73
2023/08/04 10:37:13;;;;;;;12.80;8.77;;;;;;;30.19;35.91;93519.94;5048797;28;20032;-73
2023/08/04 10:39:57;;;;;;;9.45;8.45;;;;;;;30.15;35.83;93513.78;5048387;28;20479;-74
2023/08/04 10:42:22;;;;;;;12.10;10.13;;;;;;;30.15;35.48;93516.53;5052263;28;20120;-73
2023/08/04 10:44:49;;;;;;;10.38;9.32;;;;;;;30.28;35.73;93520.00;5049800;28;20039;-74
2023/08/04 10:47:27;;;;;;;9.63;8.73;;;;;;;30.36;35.50;93515.78;5046142;28;20293;-75
2023/08/04 10:49:53;;;;;;;9.13;8.32;;;;;;;30.36;35.49;93502.06;5048460;28;20035;-75
2023/08/04 10:52:19;;;;;;;9.57;8.40;;;;;;;30.49;35.83;93502.00;5046080;28;20017;-74
2023/08/04 10:54:45;;;;;;;9.48;8.57;;;;;;;30.48;34.63;93495.75;5046916;28;20462;-74
2023/08/04 10:57:18;;;;;;;10.07;9.07;;;;;;;30.42;34.87;93500.28;5045321;28;20089;-73
2023/08/04 10:59:44;;;;;;;12.35;10.38;;;;;;;30.35;35.11;93503.28;5046861;28;20055;-75
2023/08/04 11:02:09;;;;;;;9.95;8.95;;;;;;;30.56;37.62;93496.22;5046157;28;20041;-74
2023/08/04 11:04:38;;;;;;;11.32;10.13;;;;;;;30.62;37.51;93489.72;5046673;28;20041;-74
2023/08/04 11:07:04;;;;;;;11.52;10.40;;;;;;;30.49;34.30;93486.31;5046429;28;20192;-74
2023/08/04 11:09:29;;;;;;;13.30;8.90;;;;;;;30.43;34.07;93492.81;5046083;28;20048;-75
2023/08/04 11:11:55;;;;;;;9.90;8.88;;;;;;;30.36;34.55;93480.09;5047702;28;20086;-74
2023/08/04 11:14:21;;;;;;;10.07;9.18;;;;;;;30.30;35.77;93484.66;5046034;28;20473;-74
2023/08/04 11:16:49;;;;;;;12.15;9.82;;;;;;;30.52;37.75;93490.88;5046634;28;20609;-75